Wetterdaten: aktuell Sonntag, 18.08.2019 20:29
Datum Zeit Temp. A. Feuchte A. Luftdruck Regen Wind Richtung Richtung Taupunkt Windchill Windben
18.08.2019 20:29 21,9 C 76 % 1009,6 hPa 0,0 l/m 1,6 km/h (1 Bft) O-SO 112 17,5 C 21,9 C 1,6 km/h (1 Bft)
18.08.2019 19:29 24,8 C 71 % 1009,7 hPa 0,0 l/m 0,0 km/h (0 Bft) N 0 19,2 C 24,8 C 1,6 km/h (1 Bft)
18.08.2019 18:29 27,3 C 61 % 1009,8 hPa 0,0 l/m 0,0 km/h (0 Bft) N 0 19,1 C 27,3 C 0,0 km/h (0 Bft)
18.08.2019 17:29 29,7 C 49 % 1010,1 hPa 0,0 l/m 1,6 km/h (1 Bft) O 90 17,8 C 29,7 C 3,2 km/h (1 Bft)
18.08.2019 16:29 30,4 C 50 % 1010,6 hPa 0,0 l/m 6,4 km/h (2 Bft) S-SO 157 18,8 C 30,4 C 9,7 km/h (2 Bft)
18.08.2019 15:29 30,2 C 43 % 1011,1 hPa 0,0 l/m 4,8 km/h (1 Bft) SO 135 16,2 C 30,2 C 8,0 km/h (2 Bft)
18.08.2019 14:29 30,0 C 46 % 1011,3 hPa 0,0 l/m 3,2 km/h (1 Bft) S-SO 157 17,1 C 30,0 C 6,4 km/h (2 Bft)
18.08.2019 13:29 29,3 C 46 % 1011,4 hPa 0,0 l/m 6,4 km/h (2 Bft) O-SO 112 16,5 C 29,3 C 8,0 km/h (2 Bft)
18.08.2019 12:29 28,1 C 49 % 1011,8 hPa 0,0 l/m 3,2 km/h (1 Bft) S-SO 157 16,4 C 28,1 C 6,4 km/h (2 Bft)
18.08.2019 11:29 27,1 C 58 % 1012,2 hPa 0,0 l/m 6,4 km/h (2 Bft) S 180 18,1 C 27,1 C 8,0 km/h (2 Bft)
18.08.2019 10:29 26,1 C 61 % 1012,5 hPa 0,0 l/m 4,8 km/h (1 Bft) S-SO 157 18,0 C 26,1 C 8,0 km/h (2 Bft)
18.08.2019 09:29 23,7 C 67 % 1013,0 hPa 0,0 l/m 9,7 km/h (2 Bft) S 180 17,2 C 22,8 C 11,3 km/h (2 Bft)
18.08.2019 08:29 21,1 C 76 % 1013,2 hPa 0,0 l/m 6,4 km/h (2 Bft) S-SW 202 16,7 C 21,1 C 6,4 km/h (2 Bft)
18.08.2019 07:29 17,7 C 85 % 1013,0 hPa 0,0 l/m 3,2 km/h (1 Bft) SW 225 15,1 C 17,7 C 4,8 km/h (1 Bft)
18.08.2019 06:29 14,2 C 93 % 1013,0 hPa 0,0 l/m 0,0 km/h (0 Bft) N 0 13,1 C 14,2 C 0,0 km/h (0 Bft)
18.08.2019 05:29 13,5 C 92 % 1012,6 hPa 0,0 l/m 0,0 km/h (0 Bft) N 0 12,2 C 13,5 C 0,0 km/h (0 Bft)
18.08.2019 04:29 14,7 C 90 % 1012,7 hPa 0,0 l/m 0,0 km/h (0 Bft) W-NW 292 13,1 C 14,7 C 1,6 km/h (1 Bft)
18.08.2019 03:29 16,0 C 88 % 1013,2 hPa 0,0 l/m 1,6 km/h (1 Bft) NO 45 14,0 C 16,0 C 1,6 km/h (1 Bft)
18.08.2019 02:29 16,2 C 87 % 1013,8 hPa 0,0 l/m 3,2 km/h (1 Bft) NO 45 14,0 C 16,2 C 4,8 km/h (1 Bft)
18.08.2019 01:29 16,3 C 86 % 1014,2 hPa 0,0 l/m 3,2 km/h (1 Bft) S-SW 202 14,0 C 16,3 C 4,8 km/h (1 Bft)
18.08.2019 00:29 15,5 C 87 % 1014,6 hPa 0,0 l/m 1,6 km/h (1 Bft) W-SW 247 13,3 C 15,5 C 4,8 km/h (1 Bft)
17.08.2019 23:29 16,1 C 87 % 1014,9 hPa 0,0 l/m 0,0 km/h (0 Bft) N 0 13,9 C 16,1 C 0,0 km/h (0 Bft)
17.08.2019 22:29 16,1 C 87 % 1015,0 hPa 0,0 l/m 3,2 km/h (1 Bft) W-SW 247 13,9 C 16,1 C 3,2 km/h (1 Bft)
17.08.2019 21:29 17,9 C 78 % 1015,0 hPa 0,0 l/m 0,0 km/h (0 Bft) N 0 14,0 C 17,9 C 1,6 km/h (1 Bft)
17.08.2019 21:00 17,7 C 78 % 1015,1 hPa 0,0 l/m 0,0 km/h (0 Bft) N 0 13,8 C 17,7 C 0,0 km/h (0 Bft)
_ Min-Zeit 05:27 14:31 19:46 - 21:00 - - 05:46 05:46 21:00
Minimum _ 13,4 C 43 % 1009,4 hPa - 0,0 km/h (0 Bft) - - 12,1 C 13,4 C 0,0 km/h (0 Bft)
_ Max-Zeit 16:31 05:30 22:44 21:00 10:12 - - 17:54 16:13 11:25
Maximum _ 30,6 C 93 % 1015,3 hPa 0,0 l/m 11,3 km/h
S (2 Bft)
- - 20,8 C 30,5 C 16,1 km/h
S (3 Bft)
Durchschnitt _ 21,5 C 73 % 1012,7 hPa #0,0 l/m 2,1 km/h (1 Bft) S-SW - 15,9 C 21,5 C 3,4 km/h (1 Bft)